Time;durP1;ratioP1;P1;durP2;ratioP2;P2;SDS_P1;SDS_P2;PMS_P1;PMS_P2;Temp;Humidity;BMP_temperature;BMP_pressure;BME280_temperature;BME280_humidity;BME280_pressure;Samples;Min_cycle;Max_cycle;Signal;HPM_P1;HPM_P2
2021/04/29 00:00:19;;;;;;;12.88;7.25;;;;;;;7.66;44.23;100312.19;5005597;28;20080;-89
2021/04/29 00:02:45;;;;;;;13.02;6.07;;;;;;;7.47;44.71;100303.38;4989211;28;20040;-85
2021/04/29 00:05:16;;;;;;;12.30;6.97;;;;;;;7.48;44.93;100297.25;4985312;28;20136;-86
2021/04/29 00:07:42;;;;;;;9.90;6.72;;;;;;;7.42;45.40;100295.72;5002115;28;20037;-87
2021/04/29 00:10:11;;;;;;;12.73;7.18;;;;;;;7.68;44.83;100294.78;4994162;28;20514;-89
2021/04/29 00:12:36;;;;;;;18.05;7.13;;;;;;;7.67;44.94;100287.91;5021298;28;20036;-86
2021/04/29 00:15:03;;;;;;;11.63;7.97;;;;;;;7.52;45.25;100291.03;4989698;28;20026;-84
2021/04/29 00:17:28;;;;;;;12.25;7.32;;;;;;;7.69;45.12;100291.28;4990661;28;20037;-85
2021/04/29 00:19:54;;;;;;;14.90;7.97;;;;;;;7.49;45.55;100285.94;5016093;28;20117;-89
2021/04/29 00:22:19;;;;;;;12.18;6.70;;;;;;;7.47;45.53;100285.16;4980094;28;20045;-90
2021/04/29 00:24:45;;;;;;;11.10;6.22;;;;;;;7.29;46.10;100279.72;4988653;28;20278;-86
2021/04/29 00:27:11;;;;;;;11.73;7.18;;;;;;;7.45;45.58;100268.75;4978860;28;20049;-90
2021/04/29 00:29:36;;;;;;;9.60;6.70;;;;;;;7.35;46.23;100270.00;4990675;28;20056;-85
2021/04/29 00:32:02;;;;;;;13.63;7.85;;;;;;;7.39;46.17;100274.19;4993418;28;20053;-88
2021/04/29 00:34:27;;;;;;;10.32;6.88;;;;;;;7.48;45.96;100273.84;4986217;28;20066;-88
2021/04/29 00:36:53;;;;;;;12.48;7.60;;;;;;;7.61;45.83;100282.06;4992561;28;20399;-85
2021/04/29 00:39:19;;;;;;;11.65;7.25;;;;;;;7.64;45.47;100281.94;4985478;28;20052;-89
2021/04/29 00:41:44;;;;;;;19.15;7.78;;;;;;;7.59;45.57;100279.53;4990411;28;20038;-84
2021/04/29 00:44:10;;;;;;;9.00;6.35;;;;;;;7.63;45.38;100280.28;4999779;28;20112;-86
2021/04/29 00:46:36;;;;;;;10.93;6.82;;;;;;;7.60;45.41;100285.56;4999435;28;20483;-87
2021/04/29 00:49:02;;;;;;;15.25;7.35;;;;;;;7.79;45.21;100285.75;4995058;28;20101;-86
2021/04/29 00:51:28;;;;;;;14.43;7.50;;;;;;;7.69;45.15;100286.09;5009298;28;20053;-85
2021/04/29 00:53:53;;;;;;;13.50;8.18;;;;;;;7.65;45.28;100281.91;4993299;28;20030;-85
2021/04/29 00:56:20;;;;;;;13.23;6.68;;;;;;;7.55;45.27;100272.72;5009906;28;20021;-84
2021/04/29 00:58:49;;;;;;;13.63;7.47;;;;;;;7.45;45.71;100273.97;4984776;28;20065;-85
2021/04/29 01:01:15;;;;;;;11.65;5.68;;;;;;;7.80;44.97;100264.00;5002254;28;20111;-86
2021/04/29 01:03:50;;;;;;;9.73;7.28;;;;;;;7.24;45.69;100267.75;4986273;28;20614;-86
2021/04/29 01:06:36;;;;;;;15.05;6.68;;;;;;;7.36;45.43;100261.31;5000538;28;20034;-85
2021/04/29 01:09:41;;;;;;;15.93;6.75;;;;;;;7.49;45.61;100257.34;4985726;28;20088;-88
2021/04/29 01:12:15;;;;;;;13.82;7.07;;;;;;;7.48;45.38;100260.84;4984996;28;20042;-87
2021/04/29 01:14:41;;;;;;;14.65;7.70;;;;;;;7.49;45.39;100257.34;5007180;28;20044;-84
2021/04/29 01:17:08;;;;;;;18.00;8.55;;;;;;;7.36;45.94;100258.69;5004406;28;20042;-85
2021/04/29 01:19:43;;;;;;;12.77;6.80;;;;;;;7.69;44.79;100246.19;5013305;28;20026;-85
2021/04/29 01:22:12;;;;;;;15.85;7.55;;;;;;;7.39;45.82;100248.19;5011758;28;20046;-85
2021/04/29 01:24:49;;;;;;;14.02;8.27;;;;;;;7.57;45.52;100255.31;5013846;28;20022;-87
2021/04/29 01:27:18;;;;;;;11.75;7.10;;;;;;;7.64;45.24;100256.78;5011334;28;20315;-84
2021/04/29 01:29:44;;;;;;;15.57;8.45;;;;;;;7.73;45.16;100250.38;4991701;28;20038;-86
2021/04/29 01:32:11;;;;;;;13.05;7.68;;;;;;;7.93;44.96;100252.22;4990772;28;20038;-89
2021/04/29 01:34:39;;;;;;;15.40;8.32;;;;;;;7.72;45.35;100246.94;4987608;28;20303;-86
2021/04/29 01:37:07;;;;;;;22.17;8.32;;;;;;;7.71;45.47;100253.06;4987668;28;20034;-87
2021/04/29 01:39:34;;;;;;;13.50;9.52;;;;;;;7.79;45.51;100246.72;4992396;28;20089;-86
2021/04/29 01:42:00;;;;;;;11.05;8.18;;;;;;;7.60;45.76;100260.44;5009808;28;20057;-86
2021/04/29 01:44:26;;;;;;;16.38;8.70;;;;;;;7.59;45.85;100253.50;4985072;28;20052;-83
2021/04/29 01:46:55;;;;;;;13.57;8.68;;;;;;;7.66;45.87;100241.97;4991692;28;20107;-87
2021/04/29 01:49:21;;;;;;;14.35;8.77;;;;;;;7.71;45.76;100242.66;4985122;28;20037;-88
2021/04/29 01:51:47;;;;;;;12.23;8.43;;;;;;;7.52;46.37;100236.41;4991323;28;20030;-85
2021/04/29 01:54:16;;;;;;;21.08;9.77;;;;;;;7.71;45.98;100237.47;4991297;28;20101;-86
2021/04/29 01:56:42;;;;;;;16.42;8.88;;;;;;;7.40;46.71;100236.84;4990187;28;20033;-85
2021/04/29 01:59:08;;;;;;;18.00;9.52;;;;;;;7.50;47.11;100233.03;4985261;28;20030;-86
2021/04/29 02:01:35;;;;;;;16.30;8.88;;;;;;;7.52;46.66;100226.03;4971901;28;20304;-87
2021/04/29 02:04:01;;;;;;;19.45;9.27;;;;;;;7.42;47.06;100235.94;5008020;28;20403;-88
2021/04/29 02:06:27;;;;;;;14.70;8.57;;;;;;;7.56;46.74;100232.84;4974819;28;20034;-85
2021/04/29 02:08:53;;;;;;;11.95;8.40;;;;;;;7.62;46.37;100229.13;5001098;28;20034;-87
2021/04/29 02:11:18;;;;;;;15.15;9.77;;;;;;;7.62;46.76;100229.97;4992160;28;20061;-86
2021/04/29 02:13:47;;;;;;;16.65;10.00;;;;;;;7.51;47.06;100240.78;5007030;28;20033;-89
2021/04/29 02:16:41;;;;;;;15.52;9.65;;;;;;;7.50;47.29;100243.44;4985183;28;20046;-87
2021/04/29 02:19:08;;;;;;;14.32;8.90;;;;;;;7.40;47.68;100249.84;4968948;28;20053;-85
2021/04/29 02:21:40;;;;;;;16.70;9.10;;;;;;;7.42;47.44;100255.84;4975108;28;20057;-88
2021/04/29 02:24:09;;;;;;;18.75;9.63;;;;;;;7.59;47.13;100253.50;5017924;28;20037;-86
2021/04/29 02:26:34;;;;;;;16.17;8.90;;;;;;;7.30;48.12;100247.59;5000761;28;20108;-90
2021/04/29 02:29:04;;;;;;;16.80;9.93;;;;;;;7.19;48.18;100244.53;5002259;28;20140;-88
2021/04/29 02:31:30;;;;;;;15.80;10.23;;;;;;;7.41;47.65;100235.97;5002687;28;20037;-86
2021/04/29 02:33:55;;;;;;;17.23;9.90;;;;;;;7.16;48.50;100234.28;4994474;28;20121;-84
2021/04/29 02:36:21;;;;;;;21.67;10.05;;;;;;;6.81;49.28;100233.75;4970615;28;20038;-86
2021/04/29 02:38:48;;;;;;;14.82;10.35;;;;;;;7.20;47.77;100227.19;4987896;28;20026;-85
2021/04/29 02:41:13;;;;;;;19.02;11.57;;;;;;;7.12;48.54;100217.09;4993695;28;20117;-85
2021/04/29 02:43:39;;;;;;;18.70;10.10;;;;;;;7.07;48.52;100219.84;4986514;28;20097;-85
2021/04/29 02:46:05;;;;;;;21.23;10.27;;;;;;;7.19;48.15;100215.09;4991856;28;20202;-88
2021/04/29 02:48:30;;;;;;;18.33;10.68;;;;;;;7.20;48.15;100204.66;5020524;28;20321;-86
2021/04/29 02:51:00;;;;;;;20.38;11.57;;;;;;;7.40;48.02;100210.88;5005338;28;20249;-84
2021/04/29 02:53:26;;;;;;;17.77;10.90;;;;;;;7.50;47.34;100213.06;4992419;28;20033;-84
2021/04/29 02:55:51;;;;;;;18.85;10.68;;;;;;;7.48;47.28;100224.44;4995003;28;20960;-87
2021/04/29 02:58:17;;;;;;;16.30;10.25;;;;;;;7.27;48.08;100224.31;4994029;28;20038;-89
2021/04/29 03:00:45;;;;;;;20.00;11.48;;;;;;;7.51;47.87;100219.09;5004756;28;20032;-86
2021/04/29 03:03:11;;;;;;;16.00;11.73;;;;;;;7.35;47.83;100223.19;5021133;28;20144;-88
2021/04/29 03:05:38;;;;;;;18.00;10.48;;;;;;;7.38;48.00;100213.53;4989200;28;20033;-86
2021/04/29 03:08:04;;;;;;;18.35;10.95;;;;;;;7.04;48.79;100213.91;5002422;28;20511;-87
2021/04/29 03:10:30;;;;;;;18.75;11.32;;;;;;;7.65;47.51;100210.84;4995261;28;20218;-86
2021/04/29 03:12:57;;;;;;;21.25;11.27;;;;;;;7.34;47.89;100211.94;4995900;28;20105;-84
2021/04/29 03:15:23;;;;;;;22.67;11.95;;;;;;;7.27;48.16;100206.13;4996983;28;20034;-88
2021/04/29 03:17:49;;;;;;;17.13;12.00;;;;;;;7.00;49.35;100200.19;5022339;28;20034;-85
2021/04/29 03:20:15;;;;;;;21.27;12.40;;;;;;;7.45;47.66;100198.56;4990685;28;20041;-87
2021/04/29 03:22:41;;;;;;;16.98;11.98;;;;;;;7.49;47.72;100200.97;4986856;28;20042;-85
2021/04/29 03:25:06;;;;;;;24.73;12.05;;;;;;;7.38;48.35;100184.94;5000580;28;20104;-88
2021/04/29 03:27:32;;;;;;;25.48;13.05;;;;;;;7.40;48.46;100192.66;4988257;28;20118;-85
2021/04/29 03:29:58;;;;;;;19.83;13.60;;;;;;;7.29;48.83;100193.94;5010830;28;20124;-86
2021/04/29 03:32:24;;;;;;;29.15;14.38;;;;;;;7.41;48.87;100186.56;4994501;28;20034;-85
2021/04/29 03:34:50;;;;;;;22.65;14.45;;;;;;;7.47;48.32;100186.34;5007460;28;20037;-90
2021/04/29 03:37:15;;;;;;;26.52;15.07;;;;;;;7.39;48.88;100177.97;4991723;28;20038;-87
2021/04/29 03:39:42;;;;;;;31.45;14.43;;;;;;;7.44;48.77;100178.66;5023522;28;20114;-86
2021/04/29 03:42:08;;;;;;;26.00;14.93;;;;;;;7.54;48.71;100177.41;4994354;28;20037;-88
2021/04/29 03:44:34;;;;;;;22.50;15.13;;;;;;;7.49;48.66;100179.34;5003401;28;20045;-87
2021/04/29 03:47:00;;;;;;;28.58;15.40;;;;;;;7.33;49.34;100173.84;5012199;28;20046;-87
2021/04/29 03:49:26;;;;;;;29.15;15.85;;;;;;;7.46;49.13;100174.25;4977094;28;20156;-84
2021/04/29 03:51:52;;;;;;;26.75;15.32;;;;;;;7.46;48.89;100167.28;4989143;28;20030;-89
2021/04/29 03:54:17;;;;;;;27.10;15.50;;;;;;;7.08;50.11;100169.56;5001813;28;20099;-87
2021/04/29 03:56:43;;;;;;;27.05;15.20;;;;;;;7.35;49.44;100171.19;4991567;28;20108;-83
2021/04/29 03:59:08;;;;;;;26.13;16.58;;;;;;;7.36;49.63;100165.13;4974725;28;20064;-85
2021/04/29 04:01:34;;;;;;;24.48;15.73;;;;;;;7.22;49.69;100169.06;5017023;28;20065;-87
2021/04/29 04:04:00;;;;;;;24.00;16.58;;;;;;;7.29;50.02;100164.50;5000209;28;20583;-84
2021/04/29 04:06:25;;;;;;;27.25;14.88;;;;;;;7.24;49.93;100159.44;4994042;28;20045;-84
2021/04/29 04:08:50;;;;;;;30.13;16.48;;;;;;;6.87;50.82;100160.81;5003821;28;20034;-86
2021/04/29 04:11:16;;;;;;;32.20;16.60;;;;;;;6.93;51.26;100169.28;5017801;28;20039;-89
2021/04/29 04:13:42;;;;;;;36.45;16.58;;;;;;;7.24;50.01;100156.84;5009296;28;20491;-89
2021/04/29 04:16:11;;;;;;;32.83;16.85;;;;;;;7.05;50.89;100158.44;4990048;28;20104;-87
2021/04/29 04:18:37;;;;;;;32.42;17.42;;;;;;;7.00;50.69;100150.81;4988655;28;20097;-87
2021/04/29 04:21:03;;;;;;;29.13;17.17;;;;;;;7.12;50.54;100150.34;4988486;28;20515;-86
2021/04/29 04:23:28;;;;;;;28.80;16.58;;;;;;;7.08;50.55;100159.16;4991187;28;20632;-87
2021/04/29 04:25:54;;;;;;;22.00;14.70;;;;;;;7.09;50.70;100149.66;4986972;28;20273;-85
2021/04/29 04:28:19;;;;;;;27.50;16.55;;;;;;;7.31;50.10;100150.53;4974453;28;20137;-83
2021/04/29 04:30:45;;;;;;;25.42;14.60;;;;;;;7.27;50.25;100143.75;5003522;28;20045;-86
2021/04/29 04:33:10;;;;;;;27.40;16.38;;;;;;;7.45;49.20;100138.75;4984975;28;20038;-87
2021/04/29 04:35:39;;;;;;;26.08;15.82;;;;;;;7.51;48.90;100144.56;5007628;28;20038;-85
2021/04/29 04:38:05;;;;;;;24.58;14.88;;;;;;;7.54;49.18;100138.41;4985126;28;20042;-84
2021/04/29 04:40:31;;;;;;;23.83;14.80;;;;;;;7.76;48.54;100147.97;5022774;28;20132;-89
2021/04/29 04:42:57;;;;;;;28.45;15.20;;;;;;;7.66;49.24;100148.34;4995922;28;20079;-86
2021/04/29 04:45:22;;;;;;;31.55;16.05;;;;;;;8.03;48.16;100146.88;5002751;28;20034;-85
2021/04/29 04:47:48;;;;;;;21.40;13.35;;;;;;;7.94;48.09;100149.84;4987738;28;20034;-85
2021/04/29 04:50:13;;;;;;;25.90;15.00;;;;;;;7.97;47.70;100147.13;5001346;28;20041;-88
2021/04/29 04:52:39;;;;;;;24.25;13.73;;;;;;;7.90;48.37;100153.47;4989013;28;20403;-86
2021/04/29 04:55:05;;;;;;;22.55;14.00;;;;;;;7.93;48.23;100148.16;5003354;28;20137;-83
2021/04/29 04:57:31;;;;;;;21.35;13.00;;;;;;;7.73;48.70;100142.00;5001813;28;20034;-88
2021/04/29 04:59:56;;;;;;;21.48;13.15;;;;;;;7.76;48.21;100145.38;5015431;28;20030;-87
2021/04/29 05:02:22;;;;;;;21.90;13.23;;;;;;;7.59;48.96;100139.09;5008746;28;20240;-90
2021/04/29 05:04:47;;;;;;;22.55;13.43;;;;;;;7.85;48.39;100138.06;4990570;28;20049;-85
2021/04/29 05:07:13;;;;;;;19.67;13.80;;;;;;;8.10;47.63;100139.66;4988999;28;20041;-86
2021/04/29 05:09:39;;;;;;;17.63;11.52;;;;;;;8.19;47.46;100135.84;4993666;28;20570;-88
2021/04/29 05:12:05;;;;;;;21.55;12.60;;;;;;;8.19;46.94;100138.44;4986376;28;20060;-86
2021/04/29 05:14:31;;;;;;;21.58;13.20;;;;;;;8.17;47.16;100135.88;5018570;28;20538;-85
2021/04/29 05:16:56;;;;;;;17.65;11.60;;;;;;;7.95;47.82;100133.31;4998265;28;20045;-86
2021/04/29 05:19:22;;;;;;;16.25;11.48;;;;;;;7.83;47.97;100131.22;5002922;28;20026;-87
2021/04/29 05:21:48;;;;;;;20.33;11.95;;;;;;;8.15;47.72;100133.34;5002998;28;20041;-81
2021/04/29 05:24:14;;;;;;;21.48;12.93;;;;;;;8.38;46.87;100139.31;5006223;28;20033;-86
2021/04/29 05:26:40;;;;;;;16.83;11.23;;;;;;;8.34;46.79;100136.03;4991199;28;20254;-87
2021/04/29 05:29:07;;;;;;;20.50;12.48;;;;;;;8.49;46.49;100139.72;4989722;28;20049;-88
2021/04/29 05:31:33;;;;;;;18.15;11.70;;;;;;;8.42;46.18;100138.28;4988927;28;20032;-85
2021/04/29 05:33:58;;;;;;;17.80;11.80;;;;;;;8.46;46.23;100147.66;4989534;28;20025;-86
2021/04/29 05:36:24;;;;;;;18.30;12.30;;;;;;;8.68;45.57;100138.94;4993222;28;20026;-85
2021/04/29 05:38:49;;;;;;;16.48;10.93;;;;;;;8.75;45.83;100148.19;4989663;28;20037;-84
2021/04/29 05:41:16;;;;;;;12.90;9.95;;;;;;;8.51;46.14;100152.69;5004094;28;20073;-84
2021/04/29 05:43:41;;;;;;;15.82;10.48;;;;;;;8.89;45.28;100152.81;4986802;28;20034;-87
2021/04/29 05:46:07;;;;;;;13.68;9.18;;;;;;;9.38;43.23;100151.41;4994611;28;20053;-87
2021/04/29 05:48:33;;;;;;;14.93;10.23;;;;;;;9.16;44.29;100150.72;4989036;28;20030;-86
2021/04/29 05:50:58;;;;;;;18.77;9.90;;;;;;;9.18;44.49;100154.94;4992365;28;20368;-86
2021/04/29 05:53:24;;;;;;;13.25;9.45;;;;;;;9.38;44.26;100145.34;4993984;28;20029;-87
2021/04/29 05:55:50;;;;;;;13.52;9.77;;;;;;;9.46;44.51;100142.41;4990211;28;20034;-83
2021/04/29 05:58:17;;;;;;;15.10;10.02;;;;;;;9.64;43.74;100144.13;5019983;28;20062;-87
2021/04/29 06:00:42;;;;;;;10.95;8.10;;;;;;;9.49;43.89;100137.03;5006143;28;20025;-86
2021/04/29 06:03:08;;;;;;;14.68;9.88;;;;;;;9.46;43.99;100139.78;4992480;28;20038;-83
2021/04/29 06:05:34;;;;;;;13.50;9.00;;;;;;;9.25;44.46;100132.03;4992175;28;20095;-85
2021/04/29 06:08:01;;;;;;;13.93;10.23;;;;;;;9.26;44.59;100133.75;5016094;22;20725;-65
2021/04/29 06:10:28;;;;;;;15.35;9.68;;;;;;;9.02;45.46;100133.09;5010640;28;20112;-67
2021/04/29 06:12:54;;;;;;;16.98;9.50;;;;;;;9.08;45.90;100130.22;5024207;28;20045;-66
2021/04/29 06:15:20;;;;;;;15.27;9.18;;;;;;;9.39;45.64;100129.66;5028911;28;20029;-67
2021/04/29 06:17:47;;;;;;;19.05;10.18;;;;;;;9.57;45.11;100130.53;5022278;28;20051;-66
2021/04/29 06:20:13;;;;;;;17.17;10.15;;;;;;;9.54;44.89;100133.31;5027924;28;20041;-67
2021/04/29 06:22:39;;;;;;;15.95;9.57;;;;;;;9.67;45.24;100130.94;4997454;28;20038;-65
2021/04/29 06:25:06;;;;;;;18.15;8.82;;;;;;;9.86;44.48;100138.75;5015249;28;20514;-67
2021/04/29 06:27:32;;;;;;;13.98;9.02;;;;;;;9.98;44.01;100127.69;5009150;28;20037;-66
2021/04/29 06:29:58;;;;;;;18.15;9.70;;;;;;;10.43;43.22;100128.06;5006196;28;20026;-65
2021/04/29 06:32:23;;;;;;;13.70;8.63;;;;;;;11.00;42.47;100133.00;5012570;28;20028;-66
2021/04/29 06:34:49;;;;;;;11.63;8.68;;;;;;;11.70;40.26;100130.03;5025222;28;20061;-66
2021/04/29 06:37:14;;;;;;;13.45;8.63;;;;;;;12.09;39.11;100124.31;5027194;28;20048;-67
2021/04/29 06:39:40;;;;;;;11.40;7.43;;;;;;;12.51;37.46;100120.06;5025918;28;20034;-66
2021/04/29 06:42:05;;;;;;;13.07;7.43;;;;;;;13.30;35.89;100124.84;5022282;28;20034;-65
2021/04/29 06:44:32;;;;;;;12.85;6.55;;;;;;;14.01;34.70;100114.19;5020833;28;20108;-66
2021/04/29 06:46:58;;;;;;;13.38;8.02;;;;;;;14.93;33.17;100116.66;4999182;28;20030;-65
2021/04/29 06:49:26;;;;;;;10.68;7.90;;;;;;;15.26;32.03;100109.13;5004336;28;20037;-66
2021/04/29 06:51:51;;;;;;;10.43;7.47;;;;;;;16.34;29.36;100108.13;5023218;28;20052;-66
2021/04/29 06:54:17;;;;;;;11.20;8.00;;;;;;;15.97;30.46;100107.41;4998578;28;20029;-66
2021/04/29 06:56:42;;;;;;;11.02;6.95;;;;;;;15.57;31.46;100107.72;5022929;28;20482;-66
2021/04/29 06:59:08;;;;;;;9.88;6.63;;;;;;;14.61;32.05;100110.16;4992897;28;20042;-66
2021/04/29 07:01:34;;;;;;;10.10;7.30;;;;;;;14.18;32.82;100106.03;5024187;28;20048;-67
2021/04/29 07:04:00;;;;;;;9.30;6.63;;;;;;;13.78;34.17;100103.41;5001119;28;20491;-66
2021/04/29 07:06:26;;;;;;;15.15;7.20;;;;;;;13.13;35.59;100090.94;5021211;28;20038;-67
2021/04/29 07:08:52;;;;;;;9.48;7.22;;;;;;;12.76;37.17;100097.63;4999029;28;20033;-66
2021/04/29 07:11:17;;;;;;;12.93;8.02;;;;;;;12.41;37.28;100092.75;5013158;28;20687;-67
2021/04/29 07:13:43;;;;;;;9.70;7.22;;;;;;;12.41;37.66;100092.75;5026465;28;20029;-67
2021/04/29 07:16:09;;;;;;;11.40;7.32;;;;;;;12.43;37.79;100091.72;5021042;28;20099;-67
2021/04/29 07:18:34;;;;;;;10.50;8.50;;;;;;;12.20;38.00;100089.63;5015157;28;20037;-67
2021/04/29 07:21:00;;;;;;;9.90;7.47;;;;;;;12.23;38.02;100087.66;5007182;28;20036;-66
2021/04/29 07:23:25;;;;;;;17.10;7.90;;;;;;;12.21;38.36;100084.28;5023080;28;20037;-67
2021/04/29 07:25:51;;;;;;;10.10;7.85;;;;;;;11.40;39.92;100079.34;5022732;28;20034;-66
2021/04/29 07:28:17;;;;;;;12.30;8.38;;;;;;;11.74;39.95;100094.91;5009615;28;20110;-66
2021/04/29 07:30:45;;;;;;;16.23;8.73;;;;;;;11.91;39.05;100094.81;5022157;28;21097;-66
2021/04/29 07:33:13;;;;;;;13.90;7.97;;;;;;;12.22;38.92;100093.84;5028838;28;20038;-64
2021/04/29 07:35:40;;;;;;;13.20;8.25;;;;;;;12.05;39.10;100096.63;5025638;28;20033;-66
2021/04/29 07:38:06;;;;;;;12.43;8.45;;;;;;;12.62;37.69;100101.09;5028511;28;20084;-66
2021/04/29 07:40:32;;;;;;;17.02;8.95;;;;;;;12.77;36.93;100100.19;5022607;28;20037;-66
2021/04/29 07:42:59;;;;;;;14.20;8.55;;;;;;;12.88;36.69;100096.91;5017522;28;20029;-66
2021/04/29 07:45:25;;;;;;;13.27;8.32;;;;;;;13.04;36.64;100100.25;5008853;28;20040;-67
2021/04/29 07:47:51;;;;;;;16.00;8.60;;;;;;;13.02;35.79;100093.41;5019878;28;20108;-65
2021/04/29 07:50:16;;;;;;;14.93;8.32;;;;;;;13.05;35.81;100096.69;4999506;28;20071;-66
2021/04/29 07:52:43;;;;;;;10.98;8.40;;;;;;;13.47;35.55;100089.66;4999436;28;20029;-68
2021/04/29 07:55:13;;;;;;;14.43;8.82;;;;;;;13.57;35.00;100094.34;5029528;28;20048;-66
2021/04/29 07:57:40;;;;;;;14.27;9.52;;;;;;;14.00;34.09;100096.75;5029676;28;20025;-67
2021/04/29 08:00:08;;;;;;;10.57;8.60;;;;;;;13.96;33.93;100097.91;5002686;28;20129;-67
2021/04/29 08:02:33;;;;;;;12.05;8.43;;;;;;;14.33;33.38;100099.72;5022176;28;20035;-65
2021/04/29 08:04:59;;;;;;;14.02;8.98;;;;;;;14.53;33.45;100094.94;5013019;28;20032;-66
2021/04/29 08:07:25;;;;;;;11.70;8.90;;;;;;;14.48;33.31;100091.78;5022941;28;20038;-66
2021/04/29 08:09:50;;;;;;;11.38;8.45;;;;;;;14.73;32.80;100094.38;5001742;28;20045;-66
2021/04/29 08:12:16;;;;;;;14.02;9.35;;;;;;;15.06;32.81;100095.59;5020741;28;20041;-66
2021/04/29 08:14:42;;;;;;;12.00;8.90;;;;;;;15.38;32.68;100097.72;5028989;28;20044;-66
2021/04/29 08:17:08;;;;;;;12.88;8.93;;;;;;;15.38;31.82;100097.72;5023773;28;20037;-65
2021/04/29 08:19:33;;;;;;;15.25;9.30;;;;;;;14.90;33.20;100102.88;4986122;28;20025;-66
2021/04/29 08:21:59;;;;;;;9.75;7.90;;;;;;;14.19;34.32;100107.72;4999775;28;20026;-65
2021/04/29 08:24:25;;;;;;;10.90;8.38;;;;;;;13.83;34.89;100111.84;4988662;28;20037;-65
2021/04/29 08:26:50;;;;;;;13.48;9.43;;;;;;;13.35;36.30;100114.06;5023739;28;20041;-66
2021/04/29 08:29:16;;;;;;;11.55;9.00;;;;;;;13.43;36.44;100118.78;5023263;28;20025;-67
2021/04/29 08:31:42;;;;;;;11.52;8.40;;;;;;;13.44;35.99;100121.34;5024113;28;20066;-65
2021/04/29 08:34:07;;;;;;;12.77;8.20;;;;;;;13.64;36.08;100117.44;5025364;28;20045;-66
2021/04/29 08:36:33;;;;;;;15.07;8.65;;;;;;;13.60;36.06;100128.25;5026083;28;20092;-66
2021/04/29 08:39:02;;;;;;;11.85;8.70;;;;;;;13.93;35.53;100122.59;5007241;28;20037;-67
2021/04/29 08:41:28;;;;;;;13.25;9.13;;;;;;;14.10;35.20;100130.19;5024777;28;20578;-66
2021/04/29 08:43:54;;;;;;;13.85;8.50;;;;;;;14.21;34.82;100121.59;5009887;28;20073;-65
2021/04/29 08:46:20;;;;;;;9.70;8.32;;;;;;;13.83;35.89;100127.63;5011965;28;20052;-65
2021/04/29 08:48:46;;;;;;;15.18;8.75;;;;;;;13.43;36.72;100135.41;5018893;28;20128;-65
2021/04/29 08:51:12;;;;;;;15.23;9.45;;;;;;;13.29;37.58;100140.69;5009728;28;20059;-66
2021/04/29 08:53:38;;;;;;;13.85;9.57;;;;;;;13.46;37.12;100129.13;5009702;28;20036;-65
2021/04/29 08:56:04;;;;;;;15.32;8.50;;;;;;;13.23;37.24;100135.84;4999660;28;20045;-68
2021/04/29 08:58:29;;;;;;;13.43;8.63;;;;;;;13.28;38.07;100136.38;5024349;28;20041;-66
2021/04/29 09:01:00;;;;;;;12.68;8.95;;;;;;;13.52;37.62;100140.06;5022254;28;20372;-66
2021/04/29 09:03:31;;;;;;;15.40;9.73;;;;;;;13.75;37.51;100127.25;5026117;28;20041;-66
2021/04/29 09:06:01;;;;;;;12.43;9.48;;;;;;;13.97;36.83;100137.22;5005520;28;20494;-66
2021/04/29 09:08:29;;;;;;;12.90;8.88;;;;;;;13.93;36.67;100123.41;5003734;28;20123;-66
2021/04/29 09:11:04;;;;;;;10.82;8.60;;;;;;;13.45;37.70;100133.53;4990221;28;20402;-66
2021/04/29 09:13:30;;;;;;;12.40;9.20;;;;;;;13.22;38.41;100131.50;5004512;28;20100;-65
2021/04/29 09:16:04;;;;;;;10.27;8.15;;;;;;;13.31;38.90;100130.94;5025681;28;20049;-67
2021/04/29 09:18:31;;;;;;;14.45;8.88;;;;;;;13.38;39.08;100132.22;4996182;28;20656;-65
2021/04/29 09:21:06;;;;;;;9.45;8.48;;;;;;;13.26;39.40;100127.75;5010050;28;20039;-65
2021/04/29 09:23:39;;;;;;;11.73;8.52;;;;;;;13.45;38.17;100130.91;5021266;28;20034;-66
2021/04/29 09:26:07;;;;;;;9.88;7.72;;;;;;;13.08;38.69;100130.59;4999377;28;20074;-65
2021/04/29 09:28:53;;;;;;;9.93;8.50;;;;;;;13.22;38.80;100126.25;5019777;28;20032;-67
2021/04/29 09:31:23;;;;;;;14.23;8.30;;;;;;;13.45;38.40;100130.91;5025245;28;20045;-66
2021/04/29 09:33:57;;;;;;;11.80;8.13;;;;;;;13.10;38.56;100118.22;4983644;28;20033;-67
2021/04/29 09:36:33;;;;;;;16.27;8.93;;;;;;;13.11;38.96;100125.16;5025709;28;20041;-67
2021/04/29 09:39:02;;;;;;;10.18;8.57;;;;;;;12.97;39.52;100117.31;5024954;28;20063;-66
2021/04/29 09:41:37;;;;;;;13.77;8.77;;;;;;;13.15;38.97;100115.31;5027179;28;20029;-66
2021/04/29 09:44:11;;;;;;;11.70;8.02;;;;;;;13.13;38.81;100116.34;5016472;28;20033;-65
2021/04/29 09:46:51;;;;;;;11.35;8.38;;;;;;;13.27;38.85;100109.31;4982332;28;20033;-66
2021/04/29 09:49:28;;;;;;;15.98;8.32;;;;;;;13.52;38.66;100110.34;4997101;28;20446;-66
2021/04/29 09:51:57;;;;;;;10.63;8.75;;;;;;;13.31;38.63;100102.06;5008526;28;20965;-67
2021/04/29 09:54:34;;;;;;;12.75;8.57;;;;;;;13.23;39.19;100104.34;5017950;28;20030;-66
2021/04/29 09:57:04;;;;;;;12.25;8.85;;;;;;;13.21;39.45;100114.09;5001402;28;20045;-67
2021/04/29 09:59:31;;;;;;;9.80;8.45;;;;;;;12.74;40.59;100113.50;5020736;28;20033;-66
2021/04/29 10:01:58;;;;;;;8.65;6.75;;;;;;;11.45;43.17;100121.78;5004814;28;20057;-65
2021/04/29 10:04:25;;;;;;;11.70;8.55;;;;;;;11.11;45.19;100119.34;4998928;28;20113;-66
2021/04/29 10:06:53;;;;;;;11.30;9.15;;;;;;;10.98;46.05;100124.38;4995962;28;20734;-66
2021/04/29 10:09:23;;;;;;;16.23;10.20;;;;;;;10.80;47.09;100131.41;5004210;28;20076;-66
2021/04/29 10:11:54;;;;;;;16.85;10.48;;;;;;;10.91;47.15;100129.09;5018883;28;20755;-67
2021/04/29 10:14:21;;;;;;;16.17;11.43;;;;;;;10.37;49.34;100131.00;5005631;28;20069;-66
2021/04/29 10:16:47;;;;;;;14.65;9.98;;;;;;;10.34;50.17;100129.38;5022002;28;20120;-65
2021/04/29 10:19:13;;;;;;;19.98;11.68;;;;;;;9.65;52.42;100144.97;5025946;28;20119;-64
2021/04/29 10:21:38;;;;;;;15.27;9.15;;;;;;;9.27;53.61;100156.28;5011147;28;20043;-65
2021/04/29 10:24:05;;;;;;;9.75;6.45;;;;;;;9.14;53.29;100155.16;5021990;28;20666;-66
2021/04/29 10:26:32;;;;;;;8.00;5.75;;;;;;;9.30;52.65;100161.38;4998488;28;20069;-66
2021/04/29 10:29:05;;;;;;;7.38;5.85;;;;;;;9.01;53.64;100161.81;5005493;28;20075;-65
2021/04/29 10:31:34;;;;;;;9.20;5.20;;;;;;;8.92;53.83;100157.91;5019012;28;20065;-66
2021/04/29 10:34:11;;;;;;;10.55;4.53;;;;;;;8.75;53.49;100159.47;5014452;28;20037;-65
2021/04/29 10:36:42;;;;;;;5.13;3.50;;;;;;;8.64;52.75;100163.44;4997988;28;20121;-65
2021/04/29 10:39:28;;;;;;;2.97;2.78;;;;;;;8.68;52.72;100157.19;5018330;28;20044;-64
2021/04/29 10:42:07;;;;;;;4.78;3.85;;;;;;;8.66;52.73;100157.22;4987457;28;20034;-66
2021/04/29 10:44:44;;;;;;;4.85;3.30;;;;;;;8.87;52.19;100146.81;5002471;28;20041;-65
2021/04/29 10:47:20;;;;;;;4.82;3.35;;;;;;;8.87;51.58;100152.03;5014271;28;20034;-65
2021/04/29 10:49:46;;;;;;;7.65;3.78;;;;;;;8.74;52.42;100152.56;5022170;28;20509;-65
2021/04/29 10:52:13;;;;;;;8.13;4.72;;;;;;;8.75;52.49;100149.03;5020743;28;20050;-65
2021/04/29 10:54:51;;;;;;;7.68;5.13;;;;;;;8.75;53.03;100161.22;5025161;28;20032;-67
2021/04/29 10:57:17;;;;;;;5.97;4.47;;;;;;;8.86;52.58;100155.56;5009206;28;20068;-67
2021/04/29 10:59:42;;;;;;;7.78;5.10;;;;;;;8.78;52.69;100158.47;5026535;28;20024;-67
2021/04/29 11:02:34;;;;;;;7.50;5.68;;;;;;;8.93;53.16;100163.03;5029694;28;20052;-64
2021/04/29 11:05:00;;;;;;;11.35;7.25;;;;;;;8.97;53.17;100164.56;5017422;28;20029;-66
2021/04/29 11:07:29;;;;;;;10.15;7.68;;;;;;;9.19;53.38;100164.47;5022783;28;20038;-65
2021/04/29 11:10:05;;;;;;;15.10;8.32;;;;;;;9.33;53.14;100166.44;5025560;28;20045;-67
2021/04/29 11:12:41;;;;;;;14.50;8.63;;;;;;;9.30;53.26;100166.59;4984509;28;20088;-65
2021/04/29 11:15:36;;;;;;;12.18;8.32;;;;;;;9.36;53.80;100166.28;4999658;28;20034;-66
2021/04/29 11:18:12;;;;;;;12.25;9.38;;;;;;;9.27;54.06;100171.91;5022307;28;20064;-65
2021/04/29 11:20:57;;;;;;;12.63;8.95;;;;;;;9.46;53.41;100163.28;5023092;28;20116;-66
2021/04/29 11:23:39;;;;;;;15.93;10.07;;;;;;;9.47;53.76;100164.94;5023075;28;20562;-64